Time;durP1;ratioP1;P1;durP2;ratioP2;P2;SDS_P1;SDS_P2;PMS_P1;PMS_P2;Temp;Humidity;BMP_temperature;BMP_pressure;BME280_temperature;BME280_humidity;BME280_pressure;Samples;Min_cycle;Max_cycle;Signal;HPM_P1;HPM_P2
2022/11/24 00:00:19;;;;;;;;;;;10.70;99.90;;;;;;5035394;28;19912;-25
2022/11/24 00:02:44;;;;;;;;;;;10.70;99.90;;;;;;5035938;28;20400;-25
2022/11/24 00:05:10;;;;;;;;;;;10.80;99.90;;;;;;5035418;28;20000;-26
2022/11/24 00:07:35;;;;;;;;;;;10.80;99.90;;;;;;5036603;28;20362;-26
2022/11/24 00:10:01;;;;;;;;;;;10.70;99.90;;;;;;5051162;28;19969;-25
2022/11/24 00:12:27;;;;;;;;;;;10.70;99.90;;;;;;5051757;28;19909;-26
2022/11/24 00:14:52;;;;;;;;;;;10.70;99.90;;;;;;5052698;28;20370;-26
2022/11/24 00:17:18;;;;;;;;;;;10.80;99.90;;;;;;5039304;28;20008;-26
2022/11/24 00:19:43;;;;;;;;;;;10.70;99.90;;;;;;5034494;28;20311;-26
2022/11/24 00:22:09;;;;;;;;;;;10.80;99.90;;;;;;5035255;28;19920;-26
2022/11/24 00:24:34;;;;;;;;;;;10.80;99.90;;;;;;5034748;28;19916;-26
2022/11/24 00:27:00;;;;;;;;;;;10.70;99.90;;;;;;5035261;28;19910;-26
2022/11/24 00:29:25;;;;;;;;;;;10.70;99.90;;;;;;5033954;28;19920;-26
2022/11/24 00:31:51;;;;;;;;;;;10.70;99.90;;;;;;5034382;28;19913;-26
2022/11/24 00:34:16;;;;;;;;;;;10.70;99.90;;;;;;5034759;28;20037;-26
2022/11/24 00:36:42;;;;;;;;;;;10.80;99.90;;;;;;5034251;28;20436;-26
2022/11/24 00:39:11;;;;;;;;;;;10.80;99.90;;;;;;5049688;28;20418;-26
2022/11/24 00:41:37;;;;;;;;;;;10.80;99.90;;;;;;5033940;28;20224;-26
2022/11/24 00:44:03;;;;;;;;;;;10.80;99.90;;;;;;5034133;28;20337;-26
2022/11/24 00:46:28;;;;;;;;;;;10.80;99.90;;;;;;5034134;28;19909;-26
2022/11/24 00:48:54;;;;;;;;;;;10.80;99.90;;;;;;5033566;28;19910;-26
2022/11/24 00:51:21;;;;;;;;;;;10.80;99.90;;;;;;5034104;28;19909;-26
2022/11/24 00:53:46;;;;;;;;;;;10.80;99.90;;;;;;5034031;28;20369;-26
2022/11/24 00:56:12;;;;;;;;;;;10.80;99.90;;;;;;5033869;28;19909;-26
2022/11/24 00:58:38;;;;;;;;;;;10.80;99.90;;;;;;5033379;28;20507;-26
2022/11/24 01:01:05;;;;;;;;;;;10.70;99.90;;;;;;5033630;28;19917;-26
2022/11/24 01:03:30;;;;;;;;;;;10.70;99.90;;;;;;5032329;28;20298;-26
2022/11/24 01:06:01;;;;;;;;;;;10.70;99.90;;;;;;5033570;28;19917;-26
2022/11/24 01:08:26;;;;;;;;;;;10.70;99.90;;;;;;5033152;28;19913;-26
2022/11/24 01:10:52;;;;;;;;;;;10.70;99.90;;;;;;5034809;28;19919;-26
2022/11/24 01:13:17;;;;;;;;;;;10.70;99.90;;;;;;5033660;28;19909;-26
2022/11/24 01:15:43;;;;;;;;;;;10.70;99.90;;;;;;5033433;28;20354;-26
2022/11/24 01:18:12;;;;;;;;;;;10.70;99.90;;;;;;5033636;28;19917;-26
2022/11/24 01:20:37;;;;;;;;;;;10.70;99.90;;;;;;5034051;28;19920;-26
2022/11/24 01:23:03;;;;;;;;;;;10.70;99.90;;;;;;5033799;28;19909;-26
2022/11/24 01:25:28;;;;;;;;;;;10.70;99.90;;;;;;5033148;28;19963;-26
2022/11/24 01:27:54;;;;;;;;;;;10.70;99.90;;;;;;5033336;28;19920;-26
2022/11/24 01:30:20;;;;;;;;;;;10.70;99.90;;;;;;5033252;28;19924;-26
2022/11/24 01:32:46;;;;;;;;;;;10.70;99.90;;;;;;5033162;28;19909;-26
2022/11/24 01:35:11;;;;;;;;;;;10.70;99.90;;;;;;5033097;28;19916;-26
2022/11/24 01:37:37;;;;;;;;;;;10.70;99.90;;;;;;5031690;28;19910;-26
2022/11/24 01:40:03;;;;;;;;;;;10.70;99.90;;;;;;5032935;28;20385;-26
2022/11/24 01:42:36;;;;;;;;;;;10.70;99.90;;;;;;5033052;28;19963;-26
2022/11/24 01:45:20;;;;;;;;;;;10.70;99.90;;;;;;5032775;28;19936;-26
2022/11/24 01:47:45;;;;;;;;;;;10.70;99.90;;;;;;5032732;28;19920;-25
2022/11/24 01:50:15;;;;;;;;;;;10.70;99.90;;;;;;5031847;28;19917;-26
2022/11/24 01:52:45;;;;;;;;;;;10.70;99.90;;;;;;5032680;28;20294;-26
2022/11/24 01:55:17;;;;;;;;;;;10.70;99.90;;;;;;5032881;28;20346;-26
2022/11/24 01:57:50;;;;;;;;;;;10.70;99.90;;;;;;5032695;28;19932;-26
2022/11/24 02:00:17;;;;;;;;;;;10.60;99.90;;;;;;5032364;28;19917;-26
2022/11/24 02:02:43;;;;;;;;;;;10.60;99.90;;;;;;5032551;28;20349;-26
2022/11/24 02:05:16;;;;;;;;;;;10.70;99.90;;;;;;5056914;22;19925;-24
2022/11/24 02:07:42;;;;;;;;;;;10.70;99.90;;;;;;5033399;28;19921;-24
2022/11/24 02:10:09;;;;;;;;;;;10.70;99.90;;;;;;5033087;28;20308;-24
2022/11/24 02:12:35;;;;;;;;;;;10.60;99.90;;;;;;5014711;28;19909;-23
2022/11/24 02:15:01;;;;;;;;;;;10.60;99.90;;;;;;5033216;28;19909;-24
2022/11/24 02:17:26;;;;;;;;;;;10.60;99.90;;;;;;5033076;28;19963;-24
2022/11/24 02:19:59;;;;;;;;;;;10.60;99.90;;;;;;5033743;28;19913;-24
2022/11/24 02:22:25;;;;;;;;;;;10.60;99.90;;;;;;5033182;28;19909;-23
2022/11/24 02:24:57;;;;;;;;;;;10.60;99.90;;;;;;5032327;28;19913;-24
2022/11/24 02:27:23;;;;;;;;;;;10.60;99.90;;;;;;5033497;28;20279;-24
2022/11/24 02:29:49;;;;;;;;;;;10.60;99.90;;;;;;5032053;28;19916;-23
2022/11/24 02:32:15;;;;;;;;;;;10.60;99.90;;;;;;5033868;28;19913;-23
2022/11/24 02:34:40;;;;;;;;;;;10.60;99.90;;;;;;5033401;28;20016;-24
2022/11/24 02:37:06;;;;;;;;;;;10.60;99.90;;;;;;5033493;28;20267;-23
2022/11/24 02:39:31;;;;;;;;;;;10.60;99.90;;;;;;5032762;28;19916;-23
2022/11/24 02:42:02;;;;;;;;;;;10.60;99.90;;;;;;5032397;28;19960;-23
2022/11/24 02:44:31;;;;;;;;;;;10.60;99.90;;;;;;5033518;28;19935;-24
2022/11/24 02:47:00;;;;;;;;;;;10.60;99.90;;;;;;5033105;28;20466;-24
2022/11/24 02:49:26;;;;;;;;;;;10.60;99.90;;;;;;5015167;28;19928;-24
2022/11/24 02:51:52;;;;;;;;;;;10.60;99.90;;;;;;5032904;28;19935;-23
2022/11/24 02:54:17;;;;;;;;;;;10.60;99.90;;;;;;5015699;28;19917;-23
2022/11/24 02:56:43;;;;;;;;;;;10.60;99.90;;;;;;5032938;28;20000;-24
2022/11/24 02:59:08;;;;;;;;;;;10.60;99.90;;;;;;5032076;28;20396;-24
2022/11/24 03:01:34;;;;;;;;;;;10.50;99.90;;;;;;5031329;28;19913;-24
2022/11/24 03:03:59;;;;;;;;;;;10.60;99.90;;;;;;5031887;28;19913;-23
2022/11/24 03:06:25;;;;;;;;;;;10.50;99.90;;;;;;5032056;28;19980;-24
2022/11/24 03:08:50;;;;;;;;;;;10.50;99.90;;;;;;5032746;28;19923;-23
2022/11/24 03:11:16;;;;;;;;;;;10.50;99.90;;;;;;5032642;28;19916;-23
2022/11/24 03:13:41;;;;;;;;;;;10.50;99.90;;;;;;5032972;28;20281;-24
2022/11/24 03:16:08;;;;;;;;;;;10.50;99.90;;;;;;5031767;28;19971;-23
2022/11/24 03:18:34;;;;;;;;;;;10.50;99.90;;;;;;5031565;28;19940;-23
2022/11/24 03:20:59;;;;;;;;;;;10.50;99.90;;;;;;5033273;28;19913;-23
2022/11/24 03:23:25;;;;;;;;;;;10.60;99.90;;;;;;5032448;28;19916;-24
2022/11/24 03:25:51;;;;;;;;;;;10.50;99.90;;;;;;5032124;28;20386;-24
2022/11/24 03:28:16;;;;;;;;;;;10.50;99.90;;;;;;5030934;28;19952;-24
2022/11/24 03:30:42;;;;;;;;;;;10.50;99.90;;;;;;5032552;28;19964;-24
2022/11/24 03:33:07;;;;;;;;;;;10.50;99.90;;;;;;5033179;28;20318;-24
2022/11/24 03:35:33;;;;;;;;;;;10.50;99.90;;;;;;5032637;28;20251;-24
2022/11/24 03:37:58;;;;;;;;;;;10.50;99.90;;;;;;5032930;28;19935;-23
2022/11/24 03:40:24;;;;;;;;;;;10.50;99.90;;;;;;5013562;28;19913;-24
2022/11/24 03:42:49;;;;;;;;;;;10.50;99.90;;;;;;5032417;28;19917;-24
2022/11/24 03:45:15;;;;;;;;;;;10.50;99.90;;;;;;5031177;28;19909;-23
2022/11/24 03:47:41;;;;;;;;;;;10.50;99.90;;;;;;5032829;28;19948;-24
2022/11/24 03:50:06;;;;;;;;;;;10.50;99.90;;;;;;5031532;28;19909;-23
2022/11/24 03:52:32;;;;;;;;;;;10.50;99.90;;;;;;5031957;28;19909;-24
2022/11/24 03:54:57;;;;;;;;;;;10.50;99.90;;;;;;5031859;28;19968;-24
2022/11/24 03:57:23;;;;;;;;;;;10.50;99.90;;;;;;5032315;28;19913;-24
2022/11/24 03:59:48;;;;;;;;;;;10.50;99.90;;;;;;5032368;28;19916;-24
2022/11/24 04:02:14;;;;;;;;;;;10.50;99.90;;;;;;5031557;28;19910;-24
2022/11/24 04:04:39;;;;;;;;;;;10.50;99.90;;;;;;5013702;28;20377;-24
2022/11/24 04:07:05;;;;;;;;;;;10.50;99.90;;;;;;5032012;28;19917;-24
2022/11/24 04:09:31;;;;;;;;;;;10.50;99.90;;;;;;5032613;28;19960;-23
2022/11/24 04:14:41;;;;;;;;;;;10.50;99.90;;;;;;5036588;28;19968;-24
2022/11/24 04:17:06;;;;;;;;;;;10.50;99.90;;;;;;5036040;28;19952;-24
2022/11/24 04:19:32;;;;;;;;;;;10.50;99.90;;;;;;5034677;28;19913;-23
2022/11/24 04:21:57;;;;;;;;;;;10.50;99.90;;;;;;5036179;28;19913;-24
2022/11/24 04:24:23;;;;;;;;;;;10.50;99.90;;;;;;5036293;28;19909;-24
2022/11/24 04:26:48;;;;;;;;;;;10.50;99.90;;;;;;5034424;28;20344;-23
2022/11/24 04:29:14;;;;;;;;;;;10.50;99.90;;;;;;5033927;28;19913;-23
2022/11/24 04:31:39;;;;;;;;;;;10.50;99.90;;;;;;5035698;28;19919;-23
2022/11/24 04:34:05;;;;;;;;;;;10.50;99.90;;;;;;5035850;28;19913;-24
2022/11/24 04:36:30;;;;;;;;;;;10.50;99.90;;;;;;5035174;28;19916;-23
2022/11/24 04:38:56;;;;;;;;;;;10.50;99.90;;;;;;5035383;28;19957;-23
2022/11/24 04:41:21;;;;;;;;;;;10.40;99.90;;;;;;5035475;28;19920;-24
2022/11/24 04:43:47;;;;;;;;;;;10.40;99.90;;;;;;5035730;28;20382;-24
2022/11/24 04:46:13;;;;;;;;;;;10.40;99.90;;;;;;5034287;28;19920;-23
2022/11/24 04:48:38;;;;;;;;;;;10.40;99.90;;;;;;5035177;28;19910;-23
2022/11/24 04:51:04;;;;;;;;;;;10.50;99.90;;;;;;5036032;28;19909;-24
2022/11/24 04:53:30;;;;;;;;;;;10.50;99.90;;;;;;5035265;28;19916;-24
2022/11/24 04:55:55;;;;;;;;;;;10.40;99.90;;;;;;5034019;28;20334;-24
2022/11/24 04:58:21;;;;;;;;;;;10.40;99.90;;;;;;5017107;28;19928;-23
2022/11/24 05:00:47;;;;;;;;;;;10.40;99.90;;;;;;5035386;28;19919;-24
2022/11/24 05:03:12;;;;;;;;;;;10.40;99.90;;;;;;5034678;28;19909;-24
2022/11/24 05:05:38;;;;;;;;;;;10.40;99.90;;;;;;5034420;28;19924;-23
2022/11/24 05:08:03;;;;;;;;;;;10.40;99.90;;;;;;5034493;28;19916;-24
2022/11/24 05:10:35;;;;;;;;;;;10.40;99.90;;;;;;5035369;28;19909;-24
2022/11/24 05:13:05;;;;;;;;;;;10.40;99.90;;;;;;5033907;28;19992;-23
2022/11/24 05:15:30;;;;;;;;;;;10.40;99.90;;;;;;5034870;28;19931;-24
2022/11/24 05:17:56;;;;;;;;;;;10.40;99.90;;;;;;5034224;28;20406;-23
2022/11/24 05:20:21;;;;;;;;;;;10.40;99.90;;;;;;5034249;28;19913;-24
2022/11/24 05:22:47;;;;;;;;;;;10.40;99.90;;;;;;5034441;28;19913;-23
2022/11/24 05:25:13;;;;;;;;;;;10.40;99.90;;;;;;5034023;28;20015;-23
2022/11/24 05:27:39;;;;;;;;;;;10.40;99.90;;;;;;5033434;28;19916;-23
2022/11/24 05:30:05;;;;;;;;;;;10.40;99.90;;;;;;5032885;28;19909;-23
2022/11/24 05:32:30;;;;;;;;;;;10.40;99.90;;;;;;5033999;28;19913;-24
2022/11/24 05:34:57;;;;;;;;;;;10.40;99.90;;;;;;5033650;28;20378;-23
2022/11/24 05:37:24;;;;;;;;;;;10.40;99.90;;;;;;5033988;28;20293;-23
2022/11/24 05:39:49;;;;;;;;;;;10.40;99.90;;;;;;5014733;28;19909;-23
2022/11/24 05:44:59;;;;;;;;;;;10.40;99.90;;;;;;5033666;28;19920;-23
2022/11/24 05:47:24;;;;;;;;;;;10.40;99.90;;;;;;5033335;28;19909;-23
2022/11/24 05:49:50;;;;;;;;;;;10.40;99.90;;;;;;5032982;28;20081;-23
2022/11/24 05:52:16;;;;;;;;;;;10.40;99.90;;;;;;5034351;28;20003;-23
2022/11/24 05:54:41;;;;;;;;;;;10.40;99.90;;;;;;5034147;28;19917;-23
2022/11/24 05:57:07;;;;;;;;;;;10.40;99.90;;;;;;5034062;28;19913;-23
2022/11/24 05:59:32;;;;;;;;;;;10.40;99.90;;;;;;5033077;28;19910;-23
2022/11/24 06:01:58;;;;;;;;;;;10.40;99.90;;;;;;5033038;28;19913;-23
2022/11/24 06:04:24;;;;;;;;;;;10.40;99.90;;;;;;5033240;28;20271;-23
2022/11/24 06:06:50;;;;;;;;;;;10.40;99.90;;;;;;5032995;28;19928;-23
2022/11/24 06:09:15;;;;;;;;;;;10.40;99.90;;;;;;5032672;28;19975;-23
2022/11/24 06:11:42;;;;;;;;;;;10.40;99.90;;;;;;5032943;28;19958;-23
2022/11/24 06:14:08;;;;;;;;;;;10.40;99.90;;;;;;5033143;28;19962;-23
2022/11/24 06:16:34;;;;;;;;;;;10.40;99.90;;;;;;5032842;28;19913;-23
2022/11/24 06:18:59;;;;;;;;;;;10.40;99.90;;;;;;5032425;28;19910;-23
2022/11/24 06:21:25;;;;;;;;;;;10.40;99.90;;;;;;5032726;28;20361;-23
2022/11/24 06:23:50;;;;;;;;;;;10.40;99.90;;;;;;5033706;28;19917;-23
2022/11/24 06:26:19;;;;;;;;;;;10.40;99.90;;;;;;5033003;28;19913;-24
2022/11/24 06:28:44;;;;;;;;;;;10.40;99.90;;;;;;5014310;28;19913;-23
2022/11/24 06:31:10;;;;;;;;;;;10.40;99.90;;;;;;5032081;28;19909;-23
2022/11/24 06:33:37;;;;;;;;;;;10.40;99.90;;;;;;5033197;28;19915;-23
2022/11/24 06:36:06;;;;;;;;;;;10.40;99.90;;;;;;5032111;28;20354;-23
2022/11/24 06:38:34;;;;;;;;;;;10.40;99.90;;;;;;5032680;28;19920;-23
2022/11/24 06:40:59;;;;;;;;;;;10.30;99.90;;;;;;5032964;28;19913;-23
2022/11/24 06:43:28;;;;;;;;;;;10.40;99.90;;;;;;5032834;28;20011;-23
2022/11/24 06:45:54;;;;;;;;;;;10.30;99.90;;;;;;5032720;28;19910;-24
2022/11/24 06:48:20;;;;;;;;;;;10.40;99.90;;;;;;5031941;28;20363;-23
2022/11/24 06:50:45;;;;;;;;;;;10.40;99.90;;;;;;5033039;28;19920;-23
2022/11/24 06:53:11;;;;;;;;;;;10.30;99.90;;;;;;5031968;28;19920;-23
2022/11/24 06:55:37;;;;;;;;;;;10.30;99.90;;;;;;5031688;28;20278;-23
2022/11/24 06:58:03;;;;;;;;;;;10.30;99.90;;;;;;5031424;28;19913;-23
2022/11/24 07:00:30;;;;;;;;;;;10.30;99.90;;;;;;5013661;28;20382;-23
2022/11/24 07:02:59;;;;;;;;;;;10.30;99.90;;;;;;5031516;28;19914;-23
2022/11/24 07:05:25;;;;;;;;;;;10.30;99.90;;;;;;5031299;28;20000;-23
2022/11/24 07:07:50;;;;;;;;;;;10.40;99.90;;;;;;5031568;28;20003;-23
2022/11/24 07:10:16;;;;;;;;;;;10.30;99.90;;;;;;5031694;28;19913;-23
2022/11/24 07:12:41;;;;;;;;;;;10.30;99.90;;;;;;5031790;28;19910;-23
2022/11/24 07:15:07;;;;;;;;;;;10.30;99.90;;;;;;5032171;28;19909;-23
2022/11/24 07:17:37;;;;;;;;;;;10.40;99.90;;;;;;5014466;28;19913;-23
2022/11/24 07:20:03;;;;;;;;;;;10.40;99.90;;;;;;5031353;28;19916;-23
2022/11/24 07:22:29;;;;;;;;;;;10.30;99.90;;;;;;5031963;28;20528;-23
2022/11/24 07:24:54;;;;;;;;;;;10.40;99.90;;;;;;5031414;28;19913;-23
2022/11/24 07:27:20;;;;;;;;;;;10.30;99.90;;;;;;5031548;28;19909;-23
2022/11/24 07:29:45;;;;;;;;;;;10.30;99.90;;;;;;5031521;28;19916;-23
2022/11/24 07:32:11;;;;;;;;;;;10.40;99.90;;;;;;5031358;28;20007;-23
2022/11/24 07:34:36;;;;;;;;;;;10.30;99.90;;;;;;5031896;28;20282;-23
2022/11/24 07:37:02;;;;;;;;;;;10.30;99.90;;;;;;5031144;28;19909;-23
2022/11/24 07:39:27;;;;;;;;;;;10.30;99.90;;;;;;5031125;28;19916;-23
2022/11/24 07:41:53;;;;;;;;;;;10.30;99.90;;;;;;5013928;28;19920;-23
2022/11/24 07:44:18;;;;;;;;;;;10.30;99.90;;;;;;5031555;28;20443;-24
2022/11/24 07:46:44;;;;;;;;;;;10.40;99.90;;;;;;5031503;28;19909;-23
2022/11/24 07:49:09;;;;;;;;;;;10.30;99.90;;;;;;5034245;28;19910;-23
2022/11/24 07:51:35;;;;;;;;;;;10.30;99.90;;;;;;5035506;28;20317;-23
2022/11/24 07:54:01;;;;;;;;;;;10.30;99.90;;;;;;5035894;28;19971;-23
2022/11/24 07:56:26;;;;;;;;;;;10.40;99.90;;;;;;5035714;28;19909;-23
2022/11/24 07:58:52;;;;;;;;;;;10.30;99.90;;;;;;5034393;28;19910;-23
2022/11/24 08:01:17;;;;;;;;;;;10.30;99.90;;;;;;5034767;28;19959;-23
2022/11/24 08:03:44;;;;;;;;;;;10.30;99.90;;;;;;5035102;28;20289;-24
2022/11/24 08:06:10;;;;;;;;;;;10.30;99.90;;;;;;5085355;22;19979;-25
2022/11/24 08:08:35;;;;;;;;;;;10.30;99.90;;;;;;5054278;28;19909;-25
2022/11/24 08:11:07;;;;;;;;;;;10.20;99.90;;;;;;5054698;28;19951;-25
2022/11/24 08:13:34;;;;;;;;;;;10.10;99.90;;;;;;5054513;28;19941;-25
2022/11/24 08:16:02;;;;;;;;;;;10.10;99.90;;;;;;5054582;28;19923;-25
2022/11/24 08:18:28;;;;;;;;;;;10.10;99.90;;;;;;5054200;28;19919;-25
2022/11/24 08:20:56;;;;;;;;;;;10.10;99.90;;;;;;5055284;28;19925;-25
2022/11/24 08:23:21;;;;;;;;;;;10.10;99.90;;;;;;5054483;28;19925;-25
2022/11/24 08:25:47;;;;;;;;;;;10.10;99.90;;;;;;5054331;28;20163;-25
2022/11/24 08:28:12;;;;;;;;;;;10.20;99.90;;;;;;5054188;28;19937;-25
2022/11/24 08:30:38;;;;;;;;;;;10.20;99.90;;;;;;5054334;28;20362;-25
2022/11/24 08:33:03;;;;;;;;;;;10.10;99.90;;;;;;5054294;28;19917;-26
2022/11/24 08:35:29;;;;;;;;;;;10.10;99.90;;;;;;5054731;28;19912;-25
2022/11/24 08:37:54;;;;;;;;;;;10.20;99.90;;;;;;5053727;28;20491;-25
2022/11/24 08:40:20;;;;;;;;;;;10.20;99.90;;;;;;5054571;28;20342;-26
2022/11/24 08:42:46;;;;;;;;;;;10.10;99.90;;;;;;5054289;28;19908;-25
2022/11/24 08:45:11;;;;;;;;;;;10.20;99.90;;;;;;5054021;28;19951;-25
2022/11/24 08:47:37;;;;;;;;;;;10.20;99.90;;;;;;5054709;28;19909;-25
2022/11/24 08:50:04;;;;;;;;;;;10.20;99.90;;;;;;5053367;28;20096;-25
2022/11/24 08:52:30;;;;;;;;;;;10.30;99.90;;;;;;5053789;28;19913;-25
2022/11/24 08:54:55;;;;;;;;;;;10.30;99.90;;;;;;5053775;28;19916;-25
2022/11/24 08:57:21;;;;;;;;;;;10.20;99.90;;;;;;5053828;28;20369;-25
2022/11/24 08:59:46;;;;;;;;;;;10.20;99.90;;;;;;5052051;28;19959;-25
2022/11/24 09:02:12;;;;;;;;;;;10.20;99.90;;;;;;5053774;28;19916;-25
2022/11/24 09:04:38;;;;;;;;;;;10.30;99.90;;;;;;5053717;28;19915;-25
2022/11/24 09:07:04;;;;;;;;;;;10.30;99.90;;;;;;5053430;28;19921;-25
2022/11/24 09:09:29;;;;;;;;;;;10.30;99.90;;;;;;5053065;28;19908;-25
2022/11/24 09:11:55;;;;;;;;;;;10.30;99.90;;;;;;5053493;28;19966;-25
2022/11/24 09:14:21;;;;;;;;;;;10.40;99.90;;;;;;5053728;28;19920;-25
2022/11/24 09:16:46;;;;;;;;;;;10.40;99.90;;;;;;5053431;28;19916;-25
2022/11/24 09:19:12;;;;;;;;;;;10.40;99.90;;;;;;5052754;28;19909;-25
2022/11/24 09:21:37;;;;;;;;;;;10.60;99.90;;;;;;5053204;28;19913;-25
2022/11/24 09:24:03;;;;;;;;;;;10.60;99.90;;;;;;5053142;28;19909;-25
2022/11/24 09:26:31;;;;;;;;;;;10.70;99.90;;;;;;5053028;28;20003;-25
2022/11/24 09:28:57;;;;;;;;;;;10.70;99.90;;;;;;5052623;28;19913;-25
2022/11/24 09:31:24;;;;;;;;;;;10.70;99.90;;;;;;5053132;28;19909;-25
2022/11/24 09:33:50;;;;;;;;;;;10.70;99.90;;;;;;5053104;28;20289;-25
2022/11/24 09:36:15;;;;;;;;;;;10.70;99.90;;;;;;5052977;28;20000;-25
2022/11/24 09:38:41;;;;;;;;;;;10.70;99.90;;;;;;5052458;28;19919;-25
2022/11/24 09:41:30;;;;;;;;;;;10.80;99.90;;;;;;5052808;28;19923;-25
2022/11/24 09:44:22;;;;;;;;;;;10.80;99.90;;;;;;5052937;28;19962;-25
2022/11/24 09:46:59;;;;;;;;;;;10.80;99.90;;;;;;5036608;28;20429;-25
2022/11/24 09:49:37;;;;;;;;;;;10.80;99.90;;;;;;5052262;28;20374;-25
2022/11/24 09:52:07;;;;;;;;;;;10.80;99.90;;;;;;5053212;28;19912;-25
2022/11/24 09:54:33;;;;;;;;;;;10.80;99.90;;;;;;5053536;28;19913;-25
2022/11/24 09:56:59;;;;;;;;;;;10.80;99.90;;;;;;5066745;28;19908;-25
2022/11/24 09:59:26;;;;;;;;;;;10.80;99.90;;;;;;5068058;28;19909;-25
2022/11/24 10:01:52;;;;;;;;;;;10.80;99.90;;;;;;5068210;28;19966;-25
2022/11/24 10:04:21;;;;;;;;;;;10.80;99.90;;;;;;5057593;28;19948;-26
2022/11/24 10:06:46;;;;;;;;;;;10.80;99.90;;;;;;5052741;28;19916;-25
2022/11/24 10:09:21;;;;;;;;;;;10.80;99.90;;;;;;5051892;28;20396;-25
2022/11/24 10:11:46;;;;;;;;;;;10.70;99.90;;;;;;5052037;28;19915;-25
2022/11/24 10:14:32;;;;;;;;;;;10.70;99.90;;;;;;5052573;28;19913;-25
2022/11/24 10:17:22;;;;;;;;;;;10.70;99.90;;;;;;5051877;28;20385;-25
2022/11/24 10:19:50;;;;;;;;;;;10.70;99.90;;;;;;5051770;28;19956;-25
2022/11/24 10:22:34;;;;;;;;;;;10.70;99.90;;;;;;5052090;28;20305;-25
2022/11/24 10:25:17;;;;;;;;;;;10.60;99.90;;;;;;5052046;28;19913;-25
2022/11/24 10:27:45;;;;;;;;;;;10.60;99.90;;;;;;5051980;28;19992;-25
2022/11/24 10:30:13;;;;;;;;;;;10.60;99.90;;;;;;5051606;28;19961;-25
2022/11/24 10:32:41;;;;;;;;;;;10.60;99.90;;;;;;5051977;28;20444;-25
2022/11/24 10:35:13;;;;;;;;;;;10.60;99.90;;;;;;5051774;28;19909;-25
2022/11/24 10:37:45;;;;;;;;;;;10.60;99.90;;;;;;5051845;28;19995;-25
2022/11/24 10:40:18;;;;;;;;;;;10.60;99.90;;;;;;5051398;28;19913;-25
2022/11/24 10:42:44;;;;;;;;;;;10.60;99.90;;;;;;5051825;28;20008;-25
2022/11/24 10:45:11;;;;;;;;;;;10.60;99.90;;;;;;5051698;28;19916;-25
2022/11/24 10:47:37;;;;;;;;;;;10.60;99.90;;;;;;5051720;28;19909;-25
2022/11/24 10:50:32;;;;;;;;;;;10.70;99.90;;;;;;5051323;28;20362;-25
2022/11/24 10:53:05;;;;;;;;;;;10.70;99.90;;;;;;5042729;28;19908;-25
2022/11/24 10:55:49;;;;;;;;;;;10.70;99.90;;;;;;5051689;28;19913;-25
2022/11/24 10:58:15;;;;;;;;;;;10.80;99.90;;;;;;5051024;28;19916;-25
2022/11/24 11:00:41;;;;;;;;;;;10.80;99.90;;;;;;5051570;28;19932;-25
2022/11/24 11:03:11;;;;;;;;;;;10.80;99.90;;;;;;5051586;28;19908;-25
2022/11/24 11:05:40;;;;;;;;;;;10.80;99.90;;;;;;5051356;28;19971;-25
2022/11/24 11:08:16;;;;;;;;;;;10.80;99.90;;;;;;5050959;28;20289;-25
2022/11/24 11:10:42;;;;;;;;;;;10.80;99.90;;;;;;5051431;28;20639;-26
2022/11/24 11:13:20;;;;;;;;;;;10.80;99.90;;;;;;5050027;28;20003;-25
2022/11/24 11:15:45;;;;;;;;;;;10.80;99.90;;;;;;5051305;28;19909;-25
2022/11/24 11:18:15;;;;;;;;;;;10.80;99.90;;;;;;5050799;28;19916;-25
2022/11/24 11:20:47;;;;;;;;;;;10.80;99.90;;;;;;5051253;28;20374;-25
2022/11/24 11:23:15;;;;;;;;;;;10.80;99.90;;;;;;5053549;28;20431;-25
2022/11/24 11:25:42;;;;;;;;;;;10.80;99.90;;;;;;5055724;28;19909;-25
2022/11/24 11:28:14;;;;;;;;;;;10.80;99.90;;;;;;5054860;28;19913;-25
2022/11/24 11:30:39;;;;;;;;;;;10.80;99.90;;;;;;5055387;28;19916;-25
2022/11/24 11:33:17;;;;;;;;;;;10.80;99.90;;;;;;5055312;28;19913;-25
2022/11/24 11:35:44;;;;;;;;;;;10.80;99.90;;;;;;5055223;28;20259;-25
2022/11/24 11:38:09;;;;;;;;;;;10.80;99.90;;;;;;5054672;28;20347;-25
2022/11/24 11:40:35;;;;;;;;;;;10.80;99.90;;;;;;5055149;28;19917;-25
2022/11/24 11:43:01;;;;;;;;;;;10.80;99.90;;;;;;5055168;28;19909;-25
2022/11/24 11:45:37;;;;;;;;;;;10.80;99.90;;;;;;5054901;28;20004;-25
2022/11/24 11:48:02;;;;;;;;;;;10.80;99.90;;;;;;5054487;28;20321;-25
2022/11/24 11:50:39;;;;;;;;;;;10.90;99.90;;;;;;5055036;28;19962;-25
2022/11/24 11:53:21;;;;;;;;;;;11.00;99.90;;;;;;5055206;28;19909;-25
2022/11/24 11:55:47;;;;;;;;;;;11.00;99.90;;;;;;5054955;28;19909;-25
2022/11/24 11:58:31;;;;;;;;;;;10.90;99.90;;;;;;5054343;28;19920;-26
2022/11/24 12:01:08;;;;;;;;;;;10.90;99.90;;;;;;5054753;28;19975;-25
2022/11/24 12:03:53;;;;;;;;;;;10.90;99.90;;;;;;5055164;28;20289;-25
2022/11/24 12:06:41;;;;;;;;;;;10.90;99.90;;;;;;5053139;28;19916;-25
2022/11/24 12:09:06;;;;;;;;;;;10.90;99.90;;;;;;5053950;28;19912;-25
2022/11/24 12:11:32;;;;;;;;;;;10.90;99.90;;;;;;5054701;28;19915;-25
2022/11/24 12:14:10;;;;;;;;;;;10.90;99.90;;;;;;5054515;28;20002;-25
2022/11/24 12:16:50;;;;;;;;;;;10.90;99.90;;;;;;5054452;28;19939;-25
2022/11/24 12:19:21;;;;;;;;;;;10.90;99.90;;;;;;5053962;28;19919;-25
2022/11/24 12:21:54;;;;;;;;;;;11.00;99.90;;;;;;5054325;28;19970;-25
2022/11/24 12:24:20;;;;;;;;;;;11.00;99.90;;;;;;5054382;28;19909;-25
2022/11/24 12:26:48;;;;;;;;;;;11.00;99.90;;;;;;5054235;28;19919;-25
2022/11/24 12:29:14;;;;;;;;;;;11.00;99.90;;;;;;5053732;28;19981;-25
2022/11/24 12:31:45;;;;;;;;;;;11.10;99.90;;;;;;5054300;28;20433;-25
2022/11/24 12:34:23;;;;;;;;;;;11.10;99.90;;;;;;5053872;28;20301;-26
2022/11/24 12:36:48;;;;;;;;;;;11.10;99.90;;;;;;5054139;28;19909;-25
2022/11/24 12:39:34;;;;;;;;;;;11.20;99.90;;;;;;5053596;28;19919;-25
2022/11/24 12:42:07;;;;;;;;;;;11.20;99.90;;;;;;5054080;28;19920;-25
2022/11/24 12:44:44;;;;;;;;;;;11.20;99.90;;;;;;5054045;28;20039;-25
2022/11/24 12:47:16;;;;;;;;;;;11.20;99.90;;;;;;5054167;28;19923;-25
2022/11/24 12:50:02;;;;;;;;;;;11.20;99.90;;;;;;5053477;28;19908;-26
2022/11/24 12:52:31;;;;;;;;;;;11.10;99.90;;;;;;5046518;28;19920;-26
2022/11/24 12:54:57;;;;;;;;;;;11.10;99.90;;;;;;5053760;28;19920;-26
2022/11/24 12:57:26;;;;;;;;;;;11.10;99.90;;;;;;5053787;28;19927;-26
2022/11/24 13:00:05;;;;;;;;;;;11.10;99.90;;;;;;5053255;28;19908;-26
2022/11/24 13:02:36;;;;;;;;;;;11.10;99.90;;;;;;5053780;28;19959;-26
2022/11/24 13:05:20;;;;;;;;;;;11.10;99.90;;;;;;5053639;28;20285;-26
2022/11/24 13:07:53;;;;;;;;;;;11.10;99.90;;;;;;5052560;28;19916;-26
2022/11/24 13:10:22;;;;;;;;;;;11.10;99.90;;;;;;5053572;28;19944;-26
2022/11/24 13:12:54;;;;;;;;;;;11.10;99.90;;;;;;5053560;28;19931;-26
2022/11/24 13:15:20;;;;;;;;;;;11.00;99.90;;;;;;5053533;28;19913;-26
2022/11/24 13:17:45;;;;;;;;;;;11.00;99.90;;;;;;5053529;28;20273;-26
2022/11/24 13:20:19;;;;;;;;;;;11.00;99.90;;;;;;5052820;28;19963;-26
2022/11/24 13:22:55;;;;;;;;;;;11.00;99.90;;;;;;5053278;28;20007;-26
2022/11/24 13:25:23;;;;;;;;;;;10.90;99.90;;;;;;5051542;28;20344;-26
2022/11/24 13:27:54;;;;;;;;;;;11.00;99.90;;;;;;5052894;28;19919;-25
2022/11/24 13:30:31;;;;;;;;;;;11.00;99.90;;;;;;5052971;28;19919;-25
2022/11/24 13:33:01;;;;;;;;;;;11.00;99.90;;;;;;5053144;28;19909;-26
2022/11/24 13:35:27;;;;;;;;;;;11.00;99.90;;;;;;5052994;28;19909;-26
2022/11/24 13:37:52;;;;;;;;;;;11.10;99.90;;;;;;5052771;28;19916;-26
2022/11/24 13:40:21;;;;;;;;;;;11.10;99.90;;;;;;5053166;28;19909;-25
2022/11/24 13:43:01;;;;;;;;;;;11.10;99.90;;;;;;5052859;28;19923;-26
2022/11/24 13:45:43;;;;;;;;;;;11.10;99.90;;;;;;5052166;28;19955;-26
2022/11/24 13:48:18;;;;;;;;;;;11.10;99.90;;;;;;5052331;28;19912;-26
2022/11/24 13:50:49;;;;;;;;;;;11.10;99.90;;;;;;5052764;28;20293;-26
2022/11/24 13:53:31;;;;;;;;;;;11.10;99.90;;;;;;5052707;28;20022;-26
2022/11/24 13:56:19;;;;;;;;;;;11.10;99.90;;;;;;5052576;28;20285;-26
2022/11/24 13:58:46;;;;;;;;;;;11.10;99.90;;;;;;5052102;28;19935;-26
2022/11/24 14:01:18;;;;;;;;;;;11.10;99.90;;;;;;5052462;28;19913;-26
2022/11/24 14:03:46;;;;;;;;;;;11.10;99.90;;;;;;5052526;28;20008;-26
2022/11/24 14:06:31;;;;;;;;;;;11.10;99.90;;;;;;5052818;28;20411;-27
2022/11/24 14:08:58;;;;;;;;;;;11.10;99.90;;;;;;5052120;28;19913;-27
2022/11/24 14:11:25;;;;;;;;;;;11.10;99.90;;;;;;5052420;28;19982;-27
2022/11/24 14:13:51;;;;;;;;;;;11.10;99.90;;;;;;5052514;28;19959;-27
2022/11/24 14:16:18;;;;;;;;;;;11.10;99.90;;;;;;5052117;28;19913;-27
2022/11/24 14:18:45;;;;;;;;;;;11.10;99.90;;;;;;5052292;28;19917;-27
2022/11/24 14:21:29;;;;;;;;;;;11.10;99.90;;;;;;5052811;28;19956;-27
2022/11/24 14:24:13;;;;;;;;;;;11.00;99.90;;;;;;5054009;28;20432;-27
2022/11/24 14:26:40;;;;;;;;;;;11.00;99.90;;;;;;5053286;28;20389;-27